sensor_id;sensor_type;location;lat;lon;timestamp;temperature;humidity
68177;DHT22;56478;50.982;7.032;2023-12-29T00:02:20;11.23;71.98
68177;DHT22;56478;50.982;7.032;2023-12-29T00:04:45;11.26;71.80
68177;DHT22;56478;50.982;7.032;2023-12-29T00:07:11;11.30;71.71
68177;DHT22;56478;50.982;7.032;2023-12-29T00:09:36;11.37;71.61
68177;DHT22;56478;50.982;7.032;2023-12-29T00:12:06;11.28;72.07
68177;DHT22;56478;50.982;7.032;2023-12-29T00:14:32;11.26;71.81
68177;DHT22;56478;50.982;7.032;2023-12-29T00:16:57;11.28;71.80
68177;DHT22;56478;50.982;7.032;2023-12-29T00:19:23;11.26;71.99
68177;DHT22;56478;50.982;7.032;2023-12-29T00:21:48;11.26;72.20
68177;DHT22;56478;50.982;7.032;2023-12-29T00:24:13;11.22;71.93
68177;DHT22;56478;50.982;7.032;2023-12-29T00:26:39;11.22;72.46
68177;DHT22;56478;50.982;7.032;2023-12-29T00:29:04;11.26;71.95
68177;DHT22;56478;50.982;7.032;2023-12-29T00:31:31;11.30;71.86
68177;DHT22;56478;50.982;7.032;2023-12-29T00:33:57;11.29;71.74
68177;DHT22;56478;50.982;7.032;2023-12-29T00:36:23;11.35;71.86
68177;DHT22;56478;50.982;7.032;2023-12-29T00:38:49;11.26;72.09
68177;DHT22;56478;50.982;7.032;2023-12-29T00:41:15;11.30;71.89
68177;DHT22;56478;50.982;7.032;2023-12-29T00:43:40;11.30;71.87
68177;DHT22;56478;50.982;7.032;2023-12-29T00:46:06;11.28;71.91
68177;DHT22;56478;50.982;7.032;2023-12-29T00:48:31;11.35;71.70
68177;DHT22;56478;50.982;7.032;2023-12-29T00:50:57;11.37;71.53
68177;DHT22;56478;50.982;7.032;2023-12-29T00:53:22;11.32;71.73
68177;DHT22;56478;50.982;7.032;2023-12-29T00:55:48;11.35;71.76
68177;DHT22;56478;50.982;7.032;2023-12-29T00:58:13;11.35;71.50
68177;DHT22;56478;50.982;7.032;2023-12-29T01:00:39;11.37;71.41
68177;DHT22;56478;50.982;7.032;2023-12-29T01:03:05;11.29;71.84
68177;DHT22;56478;50.982;7.032;2023-12-29T01:05:30;11.28;71.78
68177;DHT22;56478;50.982;7.032;2023-12-29T01:07:56;11.33;71.54
68177;DHT22;56478;50.982;7.032;2023-12-29T01:10:21;11.37;71.41
68177;DHT22;56478;50.982;7.032;2023-12-29T01:12:47;11.39;71.20
68177;DHT22;56478;50.982;7.032;2023-12-29T01:15:13;11.36;71.53
68177;DHT22;56478;50.982;7.032;2023-12-29T01:17:38;11.42;71.22
68177;DHT22;56478;50.982;7.032;2023-12-29T01:20:04;11.47;71.04
68177;DHT22;56478;50.982;7.032;2023-12-29T01:22:29;11.43;71.04
68177;DHT22;56478;50.982;7.032;2023-12-29T01:24:55;11.43;70.90
68177;DHT22;56478;50.982;7.032;2023-12-29T01:27:21;11.49;70.79
68177;DHT22;56478;50.982;7.032;2023-12-29T01:29:46;11.49;70.57
68177;DHT22;56478;50.982;7.032;2023-12-29T01:32:12;11.49;70.68
68177;DHT22;56478;50.982;7.032;2023-12-29T01:34:37;11.44;70.85
68177;DHT22;56478;50.982;7.032;2023-12-29T01:37:03;11.46;70.95
68177;DHT22;56478;50.982;7.032;2023-12-29T01:39:29;11.36;71.76
68177;DHT22;56478;50.982;7.032;2023-12-29T01:41:57;11.43;71.09
68177;DHT22;56478;50.982;7.032;2023-12-29T01:44:22;11.47;70.67
68177;DHT22;56478;50.982;7.032;2023-12-29T01:46:49;11.40;71.45
68177;DHT22;56478;50.982;7.032;2023-12-29T01:49:15;11.49;71.02
68177;DHT22;56478;50.982;7.032;2023-12-29T01:51:41;11.49;70.94
68177;DHT22;56478;50.982;7.032;2023-12-29T01:54:07;11.50;70.75
68177;DHT22;56478;50.982;7.032;2023-12-29T01:56:33;11.39;71.71
68177;DHT22;56478;50.982;7.032;2023-12-29T01:58:58;11.44;71.23
68177;DHT22;56478;50.982;7.032;2023-12-29T02:01:24;11.50;71.04
68177;DHT22;56478;50.982;7.032;2023-12-29T02:03:49;11.43;71.56
68177;DHT22;56478;50.982;7.032;2023-12-29T02:06:15;11.43;71.21
68177;DHT22;56478;50.982;7.032;2023-12-29T02:08:41;11.39;71.60
68177;DHT22;56478;50.982;7.032;2023-12-29T02:11:07;11.53;71.03
68177;DHT22;56478;50.982;7.032;2023-12-29T02:13:32;11.42;71.35
68177;DHT22;56478;50.982;7.032;2023-12-29T02:16:00;11.42;71.57
68177;DHT22;56478;50.982;7.032;2023-12-29T02:18:28;11.40;71.56
68177;DHT22;56478;50.982;7.032;2023-12-29T02:20:55;11.40;71.66
68177;DHT22;56478;50.982;7.032;2023-12-29T02:23:20;11.42;71.82
68177;DHT22;56478;50.982;7.032;2023-12-29T02:25:46;11.43;71.70
68177;DHT22;56478;50.982;7.032;2023-12-29T02:28:20;11.35;71.84
68177;DHT22;56478;50.982;7.032;2023-12-29T02:30:54;11.43;71.53
68177;DHT22;56478;50.982;7.032;2023-12-29T02:33:21;11.46;71.68
68177;DHT22;56478;50.982;7.032;2023-12-29T02:35:48;11.40;72.05
68177;DHT22;56478;50.982;7.032;2023-12-29T02:38:14;11.39;71.98
68177;DHT22;56478;50.982;7.032;2023-12-29T02:40:40;11.46;71.74
68177;DHT22;56478;50.982;7.032;2023-12-29T02:43:05;11.50;71.61
68177;DHT22;56478;50.982;7.032;2023-12-29T02:45:31;11.46;71.97
68177;DHT22;56478;50.982;7.032;2023-12-29T02:47:56;11.52;71.53
68177;DHT22;56478;50.982;7.032;2023-12-29T02:50:22;11.47;71.74
68177;DHT22;56478;50.982;7.032;2023-12-29T02:52:48;11.53;71.73
68177;DHT22;56478;50.982;7.032;2023-12-29T02:55:13;11.50;71.42
68177;DHT22;56478;50.982;7.032;2023-12-29T02:57:39;11.53;71.38
68177;DHT22;56478;50.982;7.032;2023-12-29T03:00:05;11.56;71.11
68177;DHT22;56478;50.982;7.032;2023-12-29T03:02:30;11.59;71.41
68177;DHT22;56478;50.982;7.032;2023-12-29T03:04:56;11.60;71.31
68177;DHT22;56478;50.982;7.032;2023-12-29T03:07:21;11.59;71.81
68177;DHT22;56478;50.982;7.032;2023-12-29T03:09:46;11.60;71.56
68177;DHT22;56478;50.982;7.032;2023-12-29T03:12:12;11.59;71.63
68177;DHT22;56478;50.982;7.032;2023-12-29T03:14:38;11.59;71.71
68177;DHT22;56478;50.982;7.032;2023-12-29T03:17:03;11.67;71.42
68177;DHT22;56478;50.982;7.032;2023-12-29T03:19:29;11.63;71.29
68177;DHT22;56478;50.982;7.032;2023-12-29T03:21:54;11.63;71.80
68177;DHT22;56478;50.982;7.032;2023-12-29T03:24:20;11.63;71.50
68177;DHT22;56478;50.982;7.032;2023-12-29T03:26:45;11.63;71.58
68177;DHT22;56478;50.982;7.032;2023-12-29T03:29:12;11.66;71.74
68177;DHT22;56478;50.982;7.032;2023-12-29T03:31:37;11.70;71.72
68177;DHT22;56478;50.982;7.032;2023-12-29T03:34:03;11.75;71.47
68177;DHT22;56478;50.982;7.032;2023-12-29T03:36:29;11.75;71.91
68177;DHT22;56478;50.982;7.032;2023-12-29T03:38:54;11.75;71.83
68177;DHT22;56478;50.982;7.032;2023-12-29T03:41:20;11.74;71.96
68177;DHT22;56478;50.982;7.032;2023-12-29T03:43:45;11.74;72.01
68177;DHT22;56478;50.982;7.032;2023-12-29T03:46:20;11.75;71.95
68177;DHT22;56478;50.982;7.032;2023-12-29T03:48:45;11.75;71.92
68177;DHT22;56478;50.982;7.032;2023-12-29T03:51:11;11.78;72.13
68177;DHT22;56478;50.982;7.032;2023-12-29T03:53:36;11.78;71.88
68177;DHT22;56478;50.982;7.032;2023-12-29T03:56:08;11.81;72.05
68177;DHT22;56478;50.982;7.032;2023-12-29T03:58:34;11.80;71.92
68177;DHT22;56478;50.982;7.032;2023-12-29T04:01:00;11.80;72.14
68177;DHT22;56478;50.982;7.032;2023-12-29T04:03:26;11.75;72.14
68177;DHT22;56478;50.982;7.032;2023-12-29T04:05:51;11.73;72.42
68177;DHT22;56478;50.982;7.032;2023-12-29T04:08:17;11.77;72.32
68177;DHT22;56478;50.982;7.032;2023-12-29T04:10:42;11.74;72.08
68177;DHT22;56478;50.982;7.032;2023-12-29T04:13:08;11.75;72.26
68177;DHT22;56478;50.982;7.032;2023-12-29T04:15:33;11.75;72.09
68177;DHT22;56478;50.982;7.032;2023-12-29T04:17:59;11.71;72.51
68177;DHT22;56478;50.982;7.032;2023-12-29T04:20:24;11.71;72.77
68177;DHT22;56478;50.982;7.032;2023-12-29T04:22:50;11.80;71.89
68177;DHT22;56478;50.982;7.032;2023-12-29T04:25:15;11.78;71.97
68177;DHT22;56478;50.982;7.032;2023-12-29T04:27:41;11.78;72.06
68177;DHT22;56478;50.982;7.032;2023-12-29T04:30:07;11.77;72.26
68177;DHT22;56478;50.982;7.032;2023-12-29T04:32:32;11.74;72.61
68177;DHT22;56478;50.982;7.032;2023-12-29T04:34:58;11.78;72.10
68177;DHT22;56478;50.982;7.032;2023-12-29T04:37:23;11.74;72.30
68177;DHT22;56478;50.982;7.032;2023-12-29T04:39:49;11.70;72.94
68177;DHT22;56478;50.982;7.032;2023-12-29T04:42:14;11.77;72.33
68177;DHT22;56478;50.982;7.032;2023-12-29T04:44:40;11.80;72.48
68177;DHT22;56478;50.982;7.032;2023-12-29T04:47:05;11.77;72.52
68177;DHT22;56478;50.982;7.032;2023-12-29T04:49:31;11.77;72.41
68177;DHT22;56478;50.982;7.032;2023-12-29T04:51:56;11.77;72.82
68177;DHT22;56478;50.982;7.032;2023-12-29T04:54:22;11.80;72.71
68177;DHT22;56478;50.982;7.032;2023-12-29T04:56:48;11.77;72.55
68177;DHT22;56478;50.982;7.032;2023-12-29T04:59:13;11.77;72.94
68177;DHT22;56478;50.982;7.032;2023-12-29T05:01:39;11.74;72.93
68177;DHT22;56478;50.982;7.032;2023-12-29T05:04:04;11.78;73.15
68177;DHT22;56478;50.982;7.032;2023-12-29T05:06:30;11.77;72.98
68177;DHT22;56478;50.982;7.032;2023-12-29T05:08:55;11.81;73.09
68177;DHT22;56478;50.982;7.032;2023-12-29T05:11:20;11.78;73.25
68177;DHT22;56478;50.982;7.032;2023-12-29T05:13:46;11.84;73.04
68177;DHT22;56478;50.982;7.032;2023-12-29T05:16:11;11.78;73.16
68177;DHT22;56478;50.982;7.032;2023-12-29T05:18:38;11.75;73.33
68177;DHT22;56478;50.982;7.032;2023-12-29T05:21:03;11.73;73.54
68177;DHT22;56478;50.982;7.032;2023-12-29T05:23:29;11.74;73.39
68177;DHT22;56478;50.982;7.032;2023-12-29T05:25:54;11.69;73.59
68177;DHT22;56478;50.982;7.032;2023-12-29T05:28:20;11.70;73.33
68177;DHT22;56478;50.982;7.032;2023-12-29T05:30:45;11.70;73.56
68177;DHT22;56478;50.982;7.032;2023-12-29T05:33:11;11.59;73.88
68177;DHT22;56478;50.982;7.032;2023-12-29T05:35:36;11.59;73.70
68177;DHT22;56478;50.982;7.032;2023-12-29T05:38:02;11.57;73.58
68177;DHT22;56478;50.982;7.032;2023-12-29T05:40:27;11.57;73.35
68177;DHT22;56478;50.982;7.032;2023-12-29T05:42:54;11.54;73.48
68177;DHT22;56478;50.982;7.032;2023-12-29T05:45:20;11.47;73.67
68177;DHT22;56478;50.982;7.032;2023-12-29T05:47:45;11.44;73.66
68177;DHT22;56478;50.982;7.032;2023-12-29T05:50:11;11.46;73.42
68177;DHT22;56478;50.982;7.032;2023-12-29T05:52:36;11.43;73.54
68177;DHT22;56478;50.982;7.032;2023-12-29T05:55:02;11.42;73.57
68177;DHT22;56478;50.982;7.032;2023-12-29T05:57:28;11.43;73.30
68177;DHT22;56478;50.982;7.032;2023-12-29T05:59:53;11.37;73.40
68177;DHT22;56478;50.982;7.032;2023-12-29T06:02:19;11.36;73.30
68177;DHT22;56478;50.982;7.032;2023-12-29T06:04:44;11.35;73.51
68177;DHT22;56478;50.982;7.032;2023-12-29T06:07:10;11.28;74.00
68177;DHT22;56478;50.982;7.032;2023-12-29T06:09:35;11.30;73.76
68177;DHT22;56478;50.982;7.032;2023-12-29T06:12:01;11.29;73.57
68177;DHT22;56478;50.982;7.032;2023-12-29T06:14:26;11.32;73.45
68177;DHT22;56478;50.982;7.032;2023-12-29T06:16:52;11.36;73.32
68177;DHT22;56478;50.982;7.032;2023-12-29T06:19:17;11.39;73.24
68177;DHT22;56478;50.982;7.032;2023-12-29T06:21:43;11.36;73.28
68177;DHT22;56478;50.982;7.032;2023-12-29T06:24:09;11.36;73.40
68177;DHT22;56478;50.982;7.032;2023-12-29T06:26:35;11.33;73.37
68177;DHT22;56478;50.982;7.032;2023-12-29T06:29:00;11.33;73.21
68177;DHT22;56478;50.982;7.032;2023-12-29T06:31:25;11.33;73.23
68177;DHT22;56478;50.982;7.032;2023-12-29T06:33:51;11.28;73.22
68177;DHT22;56478;50.982;7.032;2023-12-29T06:36:17;11.28;73.37
68177;DHT22;56478;50.982;7.032;2023-12-29T06:38:42;11.32;73.03
68177;DHT22;56478;50.982;7.032;2023-12-29T06:41:11;11.36;73.05
68177;DHT22;56478;50.982;7.032;2023-12-29T06:43:37;11.37;72.70
68177;DHT22;56478;50.982;7.032;2023-12-29T06:46:02;11.39;72.66
68177;DHT22;56478;50.982;7.032;2023-12-29T06:48:28;11.39;72.76
68177;DHT22;56478;50.982;7.032;2023-12-29T06:50:53;11.40;73.11
68177;DHT22;56478;50.982;7.032;2023-12-29T06:53:19;11.40;72.84
68177;DHT22;56478;50.982;7.032;2023-12-29T06:55:44;11.46;72.53
68177;DHT22;56478;50.982;7.032;2023-12-29T06:58:09;11.46;72.17
68177;DHT22;56478;50.982;7.032;2023-12-29T07:00:35;11.50;72.26
68177;DHT22;56478;50.982;7.032;2023-12-29T07:03:01;11.52;72.10
68177;DHT22;56478;50.982;7.032;2023-12-29T07:05:27;11.57;71.85
68177;DHT22;56478;50.982;7.032;2023-12-29T07:07:52;11.53;71.88
68177;DHT22;56478;50.982;7.032;2023-12-29T07:10:18;11.60;71.60
68177;DHT22;56478;50.982;7.032;2023-12-29T07:12:43;11.63;71.82
68177;DHT22;56478;50.982;7.032;2023-12-29T07:15:09;11.60;71.99
68177;DHT22;56478;50.982;7.032;2023-12-29T07:17:34;11.63;71.47
68177;DHT22;56478;50.982;7.032;2023-12-29T07:20:00;11.54;72.69
68177;DHT22;56478;50.982;7.032;2023-12-29T07:22:25;11.56;72.10
68177;DHT22;56478;50.982;7.032;2023-12-29T07:24:51;11.62;71.95
68177;DHT22;56478;50.982;7.032;2023-12-29T07:27:16;11.52;72.88
68177;DHT22;56478;50.982;7.032;2023-12-29T07:29:42;11.57;71.87
68177;DHT22;56478;50.982;7.032;2023-12-29T07:32:07;11.63;71.96
68177;DHT22;56478;50.982;7.032;2023-12-29T07:34:33;11.64;71.92
68177;DHT22;56478;50.982;7.032;2023-12-29T07:36:59;11.57;72.37
68177;DHT22;56478;50.982;7.032;2023-12-29T07:39:24;11.59;72.68
68177;DHT22;56478;50.982;7.032;2023-12-29T07:41:50;11.56;72.83
68177;DHT22;56478;50.982;7.032;2023-12-29T07:44:18;11.66;72.20
68177;DHT22;56478;50.982;7.032;2023-12-29T07:46:44;11.64;72.15
68177;DHT22;56478;50.982;7.032;2023-12-29T07:49:10;11.67;72.09
68177;DHT22;56478;50.982;7.032;2023-12-29T07:51:38;11.67;72.15
68177;DHT22;56478;50.982;7.032;2023-12-29T07:54:04;11.57;73.35
68177;DHT22;56478;50.982;7.032;2023-12-29T07:56:29;11.57;73.62
68177;DHT22;56478;50.982;7.032;2023-12-29T07:58:55;11.54;73.35
68177;DHT22;56478;50.982;7.032;2023-12-29T08:01:20;11.53;74.84
68177;DHT22;56478;50.982;7.032;2023-12-29T08:03:46;11.44;76.84
68177;DHT22;56478;50.982;7.032;2023-12-29T08:06:11;11.42;77.02
68177;DHT22;56478;50.982;7.032;2023-12-29T08:08:37;11.43;77.62
68177;DHT22;56478;50.982;7.032;2023-12-29T08:11:03;11.26;79.65
68177;DHT22;56478;50.982;7.032;2023-12-29T08:13:28;11.19;81.88
68177;DHT22;56478;50.982;7.032;2023-12-29T08:15:54;11.01;82.18
68177;DHT22;56478;50.982;7.032;2023-12-29T08:18:19;11.04;81.26
68177;DHT22;56478;50.982;7.032;2023-12-29T08:20:45;11.01;82.80
68177;DHT22;56478;50.982;7.032;2023-12-29T08:23:10;10.94;83.20
68177;DHT22;56478;50.982;7.032;2023-12-29T08:25:36;10.87;84.73
68177;DHT22;56478;50.982;7.032;2023-12-29T08:28:02;10.83;85.32
68177;DHT22;56478;50.982;7.032;2023-12-29T08:30:27;10.80;86.60
68177;DHT22;56478;50.982;7.032;2023-12-29T08:32:53;10.81;85.90
68177;DHT22;56478;50.982;7.032;2023-12-29T08:35:18;10.91;84.61
68177;DHT22;56478;50.982;7.032;2023-12-29T08:37:44;10.84;84.65
68177;DHT22;56478;50.982;7.032;2023-12-29T08:40:09;10.88;85.50
68177;DHT22;56478;50.982;7.032;2023-12-29T08:42:35;10.74;86.29
68177;DHT22;56478;50.982;7.032;2023-12-29T08:45:00;10.70;86.33
68177;DHT22;56478;50.982;7.032;2023-12-29T08:47:26;10.74;87.35
68177;DHT22;56478;50.982;7.032;2023-12-29T08:49:51;10.74;86.89
68177;DHT22;56478;50.982;7.032;2023-12-29T08:52:16;10.74;87.42
68177;DHT22;56478;50.982;7.032;2023-12-29T08:54:42;10.71;87.28
68177;DHT22;56478;50.982;7.032;2023-12-29T08:57:07;10.77;87.08
68177;DHT22;56478;50.982;7.032;2023-12-29T08:59:33;10.74;87.45
68177;DHT22;56478;50.982;7.032;2023-12-29T09:01:58;10.76;87.68
68177;DHT22;56478;50.982;7.032;2023-12-29T09:04:25;10.83;86.90
68177;DHT22;56478;50.982;7.032;2023-12-29T09:06:50;10.83;85.85
68177;DHT22;56478;50.982;7.032;2023-12-29T09:09:16;10.80;86.27
68177;DHT22;56478;50.982;7.032;2023-12-29T09:11:41;10.74;88.61
68177;DHT22;56478;50.982;7.032;2023-12-29T09:14:07;10.73;88.55
68177;DHT22;56478;50.982;7.032;2023-12-29T09:18:59;10.68;89.13
68177;DHT22;56478;50.982;7.032;2023-12-29T09:21:24;10.74;89.32
68177;DHT22;56478;50.982;7.032;2023-12-29T09:23:50;10.68;89.53
68177;DHT22;56478;50.982;7.032;2023-12-29T09:26:15;10.67;88.83
68177;DHT22;56478;50.982;7.032;2023-12-29T09:28:41;10.67;89.12
68177;DHT22;56478;50.982;7.032;2023-12-29T09:31:07;10.67;88.75
68177;DHT22;56478;50.982;7.032;2023-12-29T09:33:33;10.71;89.39
68177;DHT22;56478;50.982;7.032;2023-12-29T09:35:58;10.76;88.29
68177;DHT22;56478;50.982;7.032;2023-12-29T09:38:24;10.63;88.44
68177;DHT22;56478;50.982;7.032;2023-12-29T09:40:49;10.66;89.69
68177;DHT22;56478;50.982;7.032;2023-12-29T09:43:16;10.63;89.50
68177;DHT22;56478;50.982;7.032;2023-12-29T09:45:41;10.68;89.73
68177;DHT22;56478;50.982;7.032;2023-12-29T09:48:07;10.70;89.67
68177;DHT22;56478;50.982;7.032;2023-12-29T09:50:35;10.76;90.03
68177;DHT22;56478;50.982;7.032;2023-12-29T09:53:01;10.83;88.80
68177;DHT22;56478;50.982;7.032;2023-12-29T09:55:27;10.84;88.89
68177;DHT22;56478;50.982;7.032;2023-12-29T09:57:53;10.88;88.75
68177;DHT22;56478;50.982;7.032;2023-12-29T10:00:20;10.87;88.46
68177;DHT22;56478;50.982;7.032;2023-12-29T10:02:45;10.92;88.81
68177;DHT22;56478;50.982;7.032;2023-12-29T10:05:11;11.02;87.45
68177;DHT22;56478;50.982;7.032;2023-12-29T10:07:37;11.00;87.69
68177;DHT22;56478;50.982;7.032;2023-12-29T10:10:05;11.00;88.79
68177;DHT22;56478;50.982;7.032;2023-12-29T10:12:35;11.15;86.22
68177;DHT22;56478;50.982;7.032;2023-12-29T10:20:07;11.18;85.94
68177;DHT22;56478;50.982;7.032;2023-12-29T10:25:02;11.18;85.74
68177;DHT22;56478;50.982;7.032;2023-12-29T10:27:28;11.05;85.58
68177;DHT22;56478;50.982;7.032;2023-12-29T10:29:53;11.14;86.29
68177;DHT22;56478;50.982;7.032;2023-12-29T10:32:18;11.16;84.90
68177;DHT22;56478;50.982;7.032;2023-12-29T10:34:44;11.25;84.65
68177;DHT22;56478;50.982;7.032;2023-12-29T10:37:09;11.29;84.64
68177;DHT22;56478;50.982;7.032;2023-12-29T10:39:43;11.42;86.39
68177;DHT22;56478;50.982;7.032;2023-12-29T10:42:19;11.33;83.81
68177;DHT22;56478;50.982;7.032;2023-12-29T10:44:45;11.33;83.10
68177;DHT22;56478;50.982;7.032;2023-12-29T10:47:11;11.42;83.93
68177;DHT22;56478;50.982;7.032;2023-12-29T10:49:36;11.40;83.74
68177;DHT22;56478;50.982;7.032;2023-12-29T10:52:20;11.46;83.71
68177;DHT22;56478;50.982;7.032;2023-12-29T10:54:48;11.52;82.91
68177;DHT22;56478;50.982;7.032;2023-12-29T10:57:13;11.50;82.61
68177;DHT22;56478;50.982;7.032;2023-12-29T10:59:39;11.47;84.43
68177;DHT22;56478;50.982;7.032;2023-12-29T11:02:05;11.52;82.17
68177;DHT22;56478;50.982;7.032;2023-12-29T11:04:30;11.57;81.12
68177;DHT22;56478;50.982;7.032;2023-12-29T11:06:56;11.64;81.71
68177;DHT22;56478;50.982;7.032;2023-12-29T11:09:31;11.71;81.55
68177;DHT22;56478;50.982;7.032;2023-12-29T11:12:01;11.70;81.75
68177;DHT22;56478;50.982;7.032;2023-12-29T11:14:27;11.69;81.15
68177;DHT22;56478;50.982;7.032;2023-12-29T11:16:55;11.70;81.63
68177;DHT22;56478;50.982;7.032;2023-12-29T11:19:21;11.75;82.12
68177;DHT22;56478;50.982;7.032;2023-12-29T11:21:48;11.74;81.15
68177;DHT22;56478;50.982;7.032;2023-12-29T11:24:14;11.77;81.12
68177;DHT22;56478;50.982;7.032;2023-12-29T11:26:39;11.91;80.19
68177;DHT22;56478;50.982;7.032;2023-12-29T11:29:07;11.98;81.05
68177;DHT22;56478;50.982;7.032;2023-12-29T11:31:32;12.02;80.24
68177;DHT22;56478;50.982;7.032;2023-12-29T11:34:00;12.02;80.14
68177;DHT22;56478;50.982;7.032;2023-12-29T11:36:29;12.09;80.96
68177;DHT22;56478;50.982;7.032;2023-12-29T11:39:39;12.11;80.95
68177;DHT22;56478;50.982;7.032;2023-12-29T11:44:25;12.19;78.61
68177;DHT22;56478;50.982;7.032;2023-12-29T11:46:56;12.23;78.97
68177;DHT22;56478;50.982;7.032;2023-12-29T11:49:22;12.25;79.13
68177;DHT22;56478;50.982;7.032;2023-12-29T11:51:47;12.22;78.51
68177;DHT22;56478;50.982;7.032;2023-12-29T11:54:25;12.25;78.92
68177;DHT22;56478;50.982;7.032;2023-12-29T11:56:54;12.30;78.49
68177;DHT22;56478;50.982;7.032;2023-12-29T11:59:20;12.30;78.47
68177;DHT22;56478;50.982;7.032;2023-12-29T12:01:50;12.23;78.68
68177;DHT22;56478;50.982;7.032;2023-12-29T12:09:46;12.25;78.54
68177;DHT22;56478;50.982;7.032;2023-12-29T12:12:14;12.22;78.77
68177;DHT22;56478;50.982;7.032;2023-12-29T12:14:59;12.22;78.13
68177;DHT22;56478;50.982;7.032;2023-12-29T12:17:27;12.25;77.37
68177;DHT22;56478;50.982;7.032;2023-12-29T12:19:56;12.34;77.74
68177;DHT22;56478;50.982;7.032;2023-12-29T12:22:23;12.34;77.96
68177;DHT22;56478;50.982;7.032;2023-12-29T12:24:50;12.36;77.02
68177;DHT22;56478;50.982;7.032;2023-12-29T12:27:20;12.33;77.98
68177;DHT22;56478;50.982;7.032;2023-12-29T12:29:51;12.25;78.33
68177;DHT22;56478;50.982;7.032;2023-12-29T12:32:20;12.28;79.47
68177;DHT22;56478;50.982;7.032;2023-12-29T12:34:47;12.29;78.23
68177;DHT22;56478;50.982;7.032;2023-12-29T12:37:12;12.32;77.90
68177;DHT22;56478;50.982;7.032;2023-12-29T12:39:43;12.22;78.41
68177;DHT22;56478;50.982;7.032;2023-12-29T12:42:08;12.25;78.45
68177;DHT22;56478;50.982;7.032;2023-12-29T12:44:34;12.30;77.62
68177;DHT22;56478;50.982;7.032;2023-12-29T12:47:06;12.33;78.78
68177;DHT22;56478;50.982;7.032;2023-12-29T12:49:31;12.32;77.26
68177;DHT22;56478;50.982;7.032;2023-12-29T12:51:57;12.37;77.38
68177;DHT22;56478;50.982;7.032;2023-12-29T12:54:22;12.36;77.31
68177;DHT22;56478;50.982;7.032;2023-12-29T12:56:48;12.34;77.24
68177;DHT22;56478;50.982;7.032;2023-12-29T12:59:14;12.37;77.33
68177;DHT22;56478;50.982;7.032;2023-12-29T13:01:39;12.40;76.76
68177;DHT22;56478;50.982;7.032;2023-12-29T13:04:05;12.40;76.08
68177;DHT22;56478;50.982;7.032;2023-12-29T13:06:31;12.37;77.29
68177;DHT22;56478;50.982;7.032;2023-12-29T13:08:57;12.43;77.01
68177;DHT22;56478;50.982;7.032;2023-12-29T13:11:22;12.40;76.84
68177;DHT22;56478;50.982;7.032;2023-12-29T13:13:50;12.37;77.00
68177;DHT22;56478;50.982;7.032;2023-12-29T13:21:50;12.34;76.45
68177;DHT22;56478;50.982;7.032;2023-12-29T13:24:16;12.36;76.66
68177;DHT22;56478;50.982;7.032;2023-12-29T13:26:43;12.32;76.79
68177;DHT22;56478;50.982;7.032;2023-12-29T13:29:09;12.29;76.77
68177;DHT22;56478;50.982;7.032;2023-12-29T13:31:35;12.32;76.98
68177;DHT22;56478;50.982;7.032;2023-12-29T13:34:04;12.34;76.68
68177;DHT22;56478;50.982;7.032;2023-12-29T13:37:24;12.30;77.27
68177;DHT22;56478;50.982;7.032;2023-12-29T13:39:22;12.29;76.46
68177;DHT22;56478;50.982;7.032;2023-12-29T13:41:49;12.28;77.09
68177;DHT22;56478;50.982;7.032;2023-12-29T13:44:16;12.26;76.99
68177;DHT22;56478;50.982;7.032;2023-12-29T13:46:42;12.28;76.34
68177;DHT22;56478;50.982;7.032;2023-12-29T13:49:08;12.36;76.36
68177;DHT22;56478;50.982;7.032;2023-12-29T13:51:34;12.34;76.01
68177;DHT22;56478;50.982;7.032;2023-12-29T13:54:00;12.26;76.75
68177;DHT22;56478;50.982;7.032;2023-12-29T13:56:26;12.32;76.58
68177;DHT22;56478;50.982;7.032;2023-12-29T13:58:51;12.33;76.37
68177;DHT22;56478;50.982;7.032;2023-12-29T14:01:17;12.30;76.32
68177;DHT22;56478;50.982;7.032;2023-12-29T14:03:46;12.23;77.08
68177;DHT22;56478;50.982;7.032;2023-12-29T14:06:12;12.21;76.98
68177;DHT22;56478;50.982;7.032;2023-12-29T14:08:44;12.22;77.08
68177;DHT22;56478;50.982;7.032;2023-12-29T14:11:10;12.18;77.84
68177;DHT22;56478;50.982;7.032;2023-12-29T14:13:42;12.15;78.54
68177;DHT22;56478;50.982;7.032;2023-12-29T14:16:08;11.98;79.64
68177;DHT22;56478;50.982;7.032;2023-12-29T14:18:39;11.89;80.67
68177;DHT22;56478;50.982;7.032;2023-12-29T14:21:23;11.78;81.42
68177;DHT22;56478;50.982;7.032;2023-12-29T14:26:34;11.60;83.56
68177;DHT22;56478;50.982;7.032;2023-12-29T14:29:06;11.54;84.18
68177;DHT22;56478;50.982;7.032;2023-12-29T14:31:41;11.53;84.00
68177;DHT22;56478;50.982;7.032;2023-12-29T14:34:08;11.54;83.73
68177;DHT22;56478;50.982;7.032;2023-12-29T14:36:34;11.50;85.42
68177;DHT22;56478;50.982;7.032;2023-12-29T14:38:59;11.40;85.00
68177;DHT22;56478;50.982;7.032;2023-12-29T14:41:25;11.35;85.25
68177;DHT22;56478;50.982;7.032;2023-12-29T14:43:51;11.44;85.36
68177;DHT22;56478;50.982;7.032;2023-12-29T14:46:17;11.40;86.09
68177;DHT22;56478;50.982;7.032;2023-12-29T14:48:42;11.40;86.06
68177;DHT22;56478;50.982;7.032;2023-12-29T14:51:08;11.42;86.28
68177;DHT22;56478;50.982;7.032;2023-12-29T14:53:34;11.44;85.29
68177;DHT22;56478;50.982;7.032;2023-12-29T14:55:59;11.53;84.27
68177;DHT22;56478;50.982;7.032;2023-12-29T14:58:25;11.54;85.11
68177;DHT22;56478;50.982;7.032;2023-12-29T15:00:50;11.60;84.17
68177;DHT22;56478;50.982;7.032;2023-12-29T15:03:16;11.64;84.05
68177;DHT22;56478;50.982;7.032;2023-12-29T15:05:45;11.62;84.29
68177;DHT22;56478;50.982;7.032;2023-12-29T15:08:11;11.67;84.05
68177;DHT22;56478;50.982;7.032;2023-12-29T15:10:36;11.60;84.43
68177;DHT22;56478;50.982;7.032;2023-12-29T15:13:02;11.54;85.75
68177;DHT22;56478;50.982;7.032;2023-12-29T15:15:28;11.53;84.44
68177;DHT22;56478;50.982;7.032;2023-12-29T15:17:53;11.57;84.95
68177;DHT22;56478;50.982;7.032;2023-12-29T15:20:19;11.52;85.22
68177;DHT22;56478;50.982;7.032;2023-12-29T15:22:44;11.57;84.11
68177;DHT22;56478;50.982;7.032;2023-12-29T15:25:10;11.67;83.44
68177;DHT22;56478;50.982;7.032;2023-12-29T15:27:36;11.70;83.90
68177;DHT22;56478;50.982;7.032;2023-12-29T15:30:02;11.64;84.13
68177;DHT22;56478;50.982;7.032;2023-12-29T15:32:27;11.71;83.23
68177;DHT22;56478;50.982;7.032;2023-12-29T15:34:53;11.74;83.29
68177;DHT22;56478;50.982;7.032;2023-12-29T15:37:18;11.69;83.54
68177;DHT22;56478;50.982;7.032;2023-12-29T15:39:46;11.71;83.63
68177;DHT22;56478;50.982;7.032;2023-12-29T15:42:12;11.57;84.89
68177;DHT22;56478;50.982;7.032;2023-12-29T15:44:37;11.57;85.03
68177;DHT22;56478;50.982;7.032;2023-12-29T15:47:03;11.62;83.56
68177;DHT22;56478;50.982;7.032;2023-12-29T15:49:28;11.67;83.23
68177;DHT22;56478;50.982;7.032;2023-12-29T15:51:54;11.57;83.39